sensor_id;sensor_type;location;lat;lon;timestamp;P1;durP1;ratioP1;P2;durP2;ratioP2
8694;SDS011;65580;49.446;6.854;2024-01-16T00:02:27;10.52;;;4.22;;
8694;SDS011;65580;49.446;6.854;2024-01-16T00:06:30;13.13;;;4.60;;
8694;SDS011;65580;49.446;6.854;2024-01-16T00:10:34;8.80;;;4.13;;
8694;SDS011;65580;49.446;6.854;2024-01-16T00:14:37;10.18;;;4.65;;
8694;SDS011;65580;49.446;6.854;2024-01-16T00:18:40;13.60;;;5.05;;
8694;SDS011;65580;49.446;6.854;2024-01-16T00:22:43;12.95;;;4.82;;
8694;SDS011;65580;49.446;6.854;2024-01-16T00:26:47;17.88;;;5.70;;
8694;SDS011;65580;49.446;6.854;2024-01-16T00:30:51;15.00;;;5.90;;
8694;SDS011;65580;49.446;6.854;2024-01-16T00:34:54;14.70;;;5.15;;
8694;SDS011;65580;49.446;6.854;2024-01-16T00:38:57;11.63;;;4.50;;
8694;SDS011;65580;49.446;6.854;2024-01-16T00:43:01;14.23;;;4.85;;
8694;SDS011;65580;49.446;6.854;2024-01-16T00:47:04;13.07;;;5.55;;
8694;SDS011;65580;49.446;6.854;2024-01-16T00:51:07;11.68;;;5.05;;
8694;SDS011;65580;49.446;6.854;2024-01-16T00:55:10;12.00;;;5.47;;
8694;SDS011;65580;49.446;6.854;2024-01-16T00:59:14;16.80;;;5.65;;
8694;SDS011;65580;49.446;6.854;2024-01-16T01:03:23;13.93;;;5.35;;
8694;SDS011;65580;49.446;6.854;2024-01-16T01:07:26;16.02;;;5.75;;
8694;SDS011;65580;49.446;6.854;2024-01-16T01:11:29;15.68;;;5.60;;
8694;SDS011;65580;49.446;6.854;2024-01-16T01:15:33;19.60;;;5.95;;
8694;SDS011;65580;49.446;6.854;2024-01-16T01:19:36;11.90;;;5.20;;
8694;SDS011;65580;49.446;6.854;2024-01-16T01:23:38;12.02;;;5.35;;
8694;SDS011;65580;49.446;6.854;2024-01-16T01:27:41;13.02;;;5.05;;
8694;SDS011;65580;49.446;6.854;2024-01-16T01:31:48;14.75;;;4.60;;
8694;SDS011;65580;49.446;6.854;2024-01-16T01:35:51;12.82;;;4.68;;
8694;SDS011;65580;49.446;6.854;2024-01-16T01:39:54;9.60;;;4.60;;
8694;SDS011;65580;49.446;6.854;2024-01-16T01:43:57;16.83;;;4.63;;
8694;SDS011;65580;49.446;6.854;2024-01-16T01:48:02;10.88;;;4.15;;
8694;SDS011;65580;49.446;6.854;2024-01-16T01:52:08;13.95;;;4.22;;
8694;SDS011;65580;49.446;6.854;2024-01-16T01:56:11;13.18;;;4.50;;
8694;SDS011;65580;49.446;6.854;2024-01-16T02:00:17;9.48;;;3.95;;
8694;SDS011;65580;49.446;6.854;2024-01-16T02:04:21;13.50;;;4.93;;
8694;SDS011;65580;49.446;6.854;2024-01-16T02:08:24;13.27;;;4.85;;
8694;SDS011;65580;49.446;6.854;2024-01-16T02:12:28;12.45;;;4.95;;
8694;SDS011;65580;49.446;6.854;2024-01-16T02:16:35;10.45;;;4.43;;
8694;SDS011;65580;49.446;6.854;2024-01-16T02:20:39;13.63;;;4.68;;
8694;SDS011;65580;49.446;6.854;2024-01-16T02:24:44;13.25;;;4.57;;
8694;SDS011;65580;49.446;6.854;2024-01-16T02:28:46;12.98;;;4.95;;
8694;SDS011;65580;49.446;6.854;2024-01-16T02:32:49;15.30;;;4.95;;
8694;SDS011;65580;49.446;6.854;2024-01-16T02:36:52;10.80;;;4.50;;
8694;SDS011;65580;49.446;6.854;2024-01-16T02:40:57;9.70;;;4.10;;
8694;SDS011;65580;49.446;6.854;2024-01-16T02:45:03;7.90;;;3.90;;
8694;SDS011;65580;49.446;6.854;2024-01-16T02:49:06;8.93;;;4.22;;
8694;SDS011;65580;49.446;6.854;2024-01-16T02:53:10;12.70;;;4.05;;
8694;SDS011;65580;49.446;6.854;2024-01-16T02:57:14;17.25;;;4.47;;
8694;SDS011;65580;49.446;6.854;2024-01-16T03:01:18;9.52;;;4.22;;
8694;SDS011;65580;49.446;6.854;2024-01-16T03:05:21;13.00;;;4.65;;
8694;SDS011;65580;49.446;6.854;2024-01-16T03:09:27;12.85;;;4.30;;
8694;SDS011;65580;49.446;6.854;2024-01-16T03:13:31;10.80;;;4.38;;
8694;SDS011;65580;49.446;6.854;2024-01-16T03:17:34;11.43;;;4.80;;
8694;SDS011;65580;49.446;6.854;2024-01-16T03:21:37;13.07;;;5.18;;
8694;SDS011;65580;49.446;6.854;2024-01-16T03:25:40;11.75;;;4.95;;
8694;SDS011;65580;49.446;6.854;2024-01-16T03:29:45;8.85;;;4.35;;
8694;SDS011;65580;49.446;6.854;2024-01-16T03:33:48;14.45;;;5.25;;
8694;SDS011;65580;49.446;6.854;2024-01-16T03:37:51;12.50;;;4.78;;
8694;SDS011;65580;49.446;6.854;2024-01-16T03:41:53;11.00;;;5.18;;
8694;SDS011;65580;49.446;6.854;2024-01-16T03:45:58;9.15;;;4.72;;
8694;SDS011;65580;49.446;6.854;2024-01-16T03:50:08;13.82;;;4.93;;
8694;SDS011;65580;49.446;6.854;2024-01-16T03:54:11;9.70;;;4.63;;
8694;SDS011;65580;49.446;6.854;2024-01-16T03:58:14;10.77;;;4.70;;
8694;SDS011;65580;49.446;6.854;2024-01-16T04:02:18;14.15;;;4.75;;
8694;SDS011;65580;49.446;6.854;2024-01-16T04:06:21;11.13;;;4.68;;
8694;SDS011;65580;49.446;6.854;2024-01-16T04:10:30;12.75;;;4.60;;
8694;SDS011;65580;49.446;6.854;2024-01-16T04:14:32;11.10;;;4.72;;
8694;SDS011;65580;49.446;6.854;2024-01-16T04:18:36;10.40;;;5.00;;
8694;SDS011;65580;49.446;6.854;2024-01-16T04:22:42;12.20;;;4.70;;
8694;SDS011;65580;49.446;6.854;2024-01-16T04:26:45;13.25;;;4.55;;
8694;SDS011;65580;49.446;6.854;2024-01-16T04:30:48;12.30;;;4.55;;
8694;SDS011;65580;49.446;6.854;2024-01-16T04:34:52;15.52;;;4.60;;
8694;SDS011;65580;49.446;6.854;2024-01-16T04:38:55;13.02;;;4.65;;
8694;SDS011;65580;49.446;6.854;2024-01-16T04:43:06;9.65;;;4.35;;
8694;SDS011;65580;49.446;6.854;2024-01-16T04:47:08;11.05;;;4.32;;
8694;SDS011;65580;49.446;6.854;2024-01-16T04:51:13;10.45;;;4.35;;
8694;SDS011;65580;49.446;6.854;2024-01-16T04:55:16;10.73;;;4.10;;
8694;SDS011;65580;49.446;6.854;2024-01-16T04:59:27;11.85;;;4.40;;
8694;SDS011;65580;49.446;6.854;2024-01-16T05:03:29;12.05;;;4.53;;
8694;SDS011;65580;49.446;6.854;2024-01-16T05:07:33;12.52;;;4.47;;
8694;SDS011;65580;49.446;6.854;2024-01-16T05:15:40;12.27;;;4.45;;
8694;SDS011;65580;49.446;6.854;2024-01-16T05:19:50;11.95;;;5.00;;
8694;SDS011;65580;49.446;6.854;2024-01-16T05:23:55;10.63;;;4.47;;
8694;SDS011;65580;49.446;6.854;2024-01-16T05:27:57;11.98;;;4.78;;
8694;SDS011;65580;49.446;6.854;2024-01-16T05:32:00;13.95;;;4.53;;
8694;SDS011;65580;49.446;6.854;2024-01-16T05:36:03;10.55;;;4.20;;
8694;SDS011;65580;49.446;6.854;2024-01-16T05:40:14;13.80;;;4.65;;
8694;SDS011;65580;49.446;6.854;2024-01-16T05:48:20;14.48;;;4.70;;
8694;SDS011;65580;49.446;6.854;2024-01-16T05:52:23;13.73;;;4.65;;
8694;SDS011;65580;49.446;6.854;2024-01-16T05:56:32;15.25;;;5.57;;
8694;SDS011;65580;49.446;6.854;2024-01-16T06:00:35;12.77;;;4.85;;
8694;SDS011;65580;49.446;6.854;2024-01-16T06:04:47;16.15;;;5.25;;
8694;SDS011;65580;49.446;6.854;2024-01-16T06:08:50;9.98;;;4.85;;
8694;SDS011;65580;49.446;6.854;2024-01-16T06:12:54;19.30;;;5.95;;
8694;SDS011;65580;49.446;6.854;2024-01-16T06:16:57;14.80;;;5.35;;
8694;SDS011;65580;49.446;6.854;2024-01-16T06:21:01;12.38;;;4.25;;
8694;SDS011;65580;49.446;6.854;2024-01-16T06:25:04;14.35;;;4.78;;
8694;SDS011;65580;49.446;6.854;2024-01-16T06:29:09;12.82;;;4.75;;
8694;SDS011;65580;49.446;6.854;2024-01-16T06:33:28;10.80;;;4.43;;
8694;SDS011;65580;49.446;6.854;2024-01-16T06:37:31;9.27;;;3.88;;
8694;SDS011;65580;49.446;6.854;2024-01-16T06:41:34;15.75;;;4.20;;
8694;SDS011;65580;49.446;6.854;2024-01-16T06:45:38;14.23;;;4.50;;
8694;SDS011;65580;49.446;6.854;2024-01-16T06:49:41;12.50;;;4.30;;
8694;SDS011;65580;49.446;6.854;2024-01-16T06:53:44;11.95;;;4.40;;
8694;SDS011;65580;49.446;6.854;2024-01-16T06:57:47;15.18;;;4.65;;
8694;SDS011;65580;49.446;6.854;2024-01-16T07:01:52;12.55;;;5.20;;
8694;SDS011;65580;49.446;6.854;2024-01-16T07:05:56;11.90;;;4.78;;
8694;SDS011;65580;49.446;6.854;2024-01-16T07:09:59;14.80;;;5.63;;
8694;SDS011;65580;49.446;6.854;2024-01-16T07:14:03;15.45;;;6.20;;
8694;SDS011;65580;49.446;6.854;2024-01-16T07:18:07;12.40;;;5.97;;
8694;SDS011;65580;49.446;6.854;2024-01-16T07:26:17;13.85;;;6.38;;
8694;SDS011;65580;49.446;6.854;2024-01-16T07:30:20;16.88;;;6.45;;
8694;SDS011;65580;49.446;6.854;2024-01-16T07:38:35;17.73;;;7.43;;
8694;SDS011;65580;49.446;6.854;2024-01-16T07:42:39;21.33;;;8.18;;
8694;SDS011;65580;49.446;6.854;2024-01-16T07:46:44;17.55;;;7.30;;
8694;SDS011;65580;49.446;6.854;2024-01-16T07:54:51;12.57;;;6.10;;
8694;SDS011;65580;49.446;6.854;2024-01-16T07:58:54;20.95;;;6.80;;
8694;SDS011;65580;49.446;6.854;2024-01-16T08:02:56;18.73;;;6.82;;
8694;SDS011;65580;49.446;6.854;2024-01-16T08:07:01;15.93;;;6.70;;
8694;SDS011;65580;49.446;6.854;2024-01-16T08:11:06;21.08;;;7.40;;
8694;SDS011;65580;49.446;6.854;2024-01-16T08:15:09;18.88;;;7.88;;
8694;SDS011;65580;49.446;6.854;2024-01-16T08:19:13;18.67;;;6.97;;
8694;SDS011;65580;49.446;6.854;2024-01-16T08:23:17;22.17;;;7.55;;
8694;SDS011;65580;49.446;6.854;2024-01-16T08:27:23;21.10;;;7.68;;
8694;SDS011;65580;49.446;6.854;2024-01-16T08:31:33;25.55;;;8.93;;
8694;SDS011;65580;49.446;6.854;2024-01-16T08:35:36;17.95;;;7.57;;
8694;SDS011;65580;49.446;6.854;2024-01-16T08:39:49;28.75;;;10.13;;
8694;SDS011;65580;49.446;6.854;2024-01-16T08:43:52;27.77;;;9.30;;
8694;SDS011;65580;49.446;6.854;2024-01-16T08:47:57;24.58;;;8.30;;
8694;SDS011;65580;49.446;6.854;2024-01-16T08:52:01;19.95;;;7.80;;
8694;SDS011;65580;49.446;6.854;2024-01-16T08:56:08;20.85;;;7.88;;
8694;SDS011;65580;49.446;6.854;2024-01-16T09:00:14;29.63;;;9.43;;
8694;SDS011;65580;49.446;6.854;2024-01-16T09:04:17;25.42;;;10.70;;
8694;SDS011;65580;49.446;6.854;2024-01-16T09:08:21;34.47;;;13.95;;
8694;SDS011;65580;49.446;6.854;2024-01-16T09:12:25;32.58;;;13.48;;
8694;SDS011;65580;49.446;6.854;2024-01-16T09:24:51;44.75;;;15.13;;
8694;SDS011;65580;49.446;6.854;2024-01-16T09:29:01;44.53;;;15.75;;
8694;SDS011;65580;49.446;6.854;2024-01-16T09:33:04;49.78;;;17.88;;
8694;SDS011;65580;49.446;6.854;2024-01-16T09:37:08;43.55;;;15.57;;
8694;SDS011;65580;49.446;6.854;2024-01-16T09:45:27;31.77;;;12.60;;
8694;SDS011;65580;49.446;6.854;2024-01-16T09:49:31;31.52;;;12.23;;
8694;SDS011;65580;49.446;6.854;2024-01-16T09:53:36;32.20;;;12.50;;
8694;SDS011;65580;49.446;6.854;2024-01-16T09:57:40;32.67;;;12.20;;
8694;SDS011;65580;49.446;6.854;2024-01-16T10:01:45;27.15;;;10.52;;
8694;SDS011;65580;49.446;6.854;2024-01-16T10:05:48;30.10;;;11.77;;
8694;SDS011;65580;49.446;6.854;2024-01-16T10:09:51;32.40;;;12.75;;
8694;SDS011;65580;49.446;6.854;2024-01-16T10:13:56;28.45;;;10.65;;
8694;SDS011;65580;49.446;6.854;2024-01-16T10:18:02;21.27;;;9.25;;
8694;SDS011;65580;49.446;6.854;2024-01-16T10:22:06;20.20;;;8.77;;
8694;SDS011;65580;49.446;6.854;2024-01-16T10:26:09;23.25;;;8.32;;
8694;SDS011;65580;49.446;6.854;2024-01-16T10:30:14;22.95;;;8.30;;
8694;SDS011;65580;49.446;6.854;2024-01-16T10:34:22;22.92;;;8.95;;
8694;SDS011;65580;49.446;6.854;2024-01-16T10:38:25;42.15;;;13.82;;
8694;SDS011;65580;49.446;6.854;2024-01-16T10:42:28;30.75;;;11.10;;
8694;SDS011;65580;49.446;6.854;2024-01-16T10:46:31;27.65;;;10.38;;
8694;SDS011;65580;49.446;6.854;2024-01-16T10:50:37;31.60;;;10.20;;
8694;SDS011;65580;49.446;6.854;2024-01-16T10:54:41;31.80;;;9.85;;
8694;SDS011;65580;49.446;6.854;2024-01-16T10:58:46;24.38;;;9.43;;
8694;SDS011;65580;49.446;6.854;2024-01-16T11:02:58;21.90;;;9.77;;
8694;SDS011;65580;49.446;6.854;2024-01-16T11:07:04;23.00;;;9.38;;
8694;SDS011;65580;49.446;6.854;2024-01-16T11:11:15;17.20;;;7.30;;
8694;SDS011;65580;49.446;6.854;2024-01-16T11:15:21;19.00;;;7.55;;
8694;SDS011;65580;49.446;6.854;2024-01-16T11:19:25;17.75;;;6.45;;
8694;SDS011;65580;49.446;6.854;2024-01-16T11:23:50;14.15;;;5.85;;
8694;SDS011;65580;49.446;6.854;2024-01-16T11:28:07;19.10;;;5.80;;
8694;SDS011;65580;49.446;6.854;2024-01-16T11:32:11;13.40;;;5.50;;
8694;SDS011;65580;49.446;6.854;2024-01-16T11:36:43;12.15;;;5.13;;
8694;SDS011;65580;49.446;6.854;2024-01-16T11:41:10;12.02;;;5.60;;
8694;SDS011;65580;49.446;6.854;2024-01-16T11:49:50;12.93;;;5.57;;
8694;SDS011;65580;49.446;6.854;2024-01-16T11:53:55;14.75;;;5.18;;
8694;SDS011;65580;49.446;6.854;2024-01-16T11:58:07;14.57;;;5.82;;
8694;SDS011;65580;49.446;6.854;2024-01-16T12:02:24;15.07;;;5.60;;
8694;SDS011;65580;49.446;6.854;2024-01-16T12:10:45;15.63;;;6.40;;
8694;SDS011;65580;49.446;6.854;2024-01-16T12:14:53;15.25;;;5.78;;
8694;SDS011;65580;49.446;6.854;2024-01-16T12:19:03;17.85;;;6.05;;
8694;SDS011;65580;49.446;6.854;2024-01-16T12:27:29;16.45;;;6.30;;
8694;SDS011;65580;49.446;6.854;2024-01-16T12:31:40;13.20;;;5.65;;
8694;SDS011;65580;49.446;6.854;2024-01-16T12:35:49;12.40;;;6.15;;
8694;SDS011;65580;49.446;6.854;2024-01-16T12:39:53;13.23;;;6.22;;
8694;SDS011;65580;49.446;6.854;2024-01-16T12:43:55;13.15;;;5.55;;
8694;SDS011;65580;49.446;6.854;2024-01-16T12:48:21;18.02;;;6.10;;
8694;SDS011;65580;49.446;6.854;2024-01-16T12:52:26;15.20;;;5.97;;
8694;SDS011;65580;49.446;6.854;2024-01-16T12:56:31;10.63;;;4.20;;
8694;SDS011;65580;49.446;6.854;2024-01-16T13:00:39;10.85;;;4.43;;
8694;SDS011;65580;49.446;6.854;2024-01-16T13:04:56;10.45;;;3.95;;
8694;SDS011;65580;49.446;6.854;2024-01-16T13:13:22;8.70;;;3.40;;
8694;SDS011;65580;49.446;6.854;2024-01-16T13:17:25;6.75;;;3.10;;
8694;SDS011;65580;49.446;6.854;2024-01-16T13:21:30;12.02;;;4.15;;
8694;SDS011;65580;49.446;6.854;2024-01-16T13:25:33;8.68;;;3.83;;
8694;SDS011;65580;49.446;6.854;2024-01-16T13:29:37;9.48;;;3.05;;
8694;SDS011;65580;49.446;6.854;2024-01-16T13:33:49;15.65;;;4.15;;
8694;SDS011;65580;49.446;6.854;2024-01-16T13:37:54;5.80;;;2.42;;
8694;SDS011;65580;49.446;6.854;2024-01-16T13:46:12;10.27;;;3.30;;
8694;SDS011;65580;49.446;6.854;2024-01-16T13:50:28;12.43;;;3.65;;
8694;SDS011;65580;49.446;6.854;2024-01-16T13:54:37;8.45;;;3.65;;
8694;SDS011;65580;49.446;6.854;2024-01-16T13:58:43;11.80;;;4.05;;
8694;SDS011;65580;49.446;6.854;2024-01-16T14:02:49;12.73;;;3.67;;
8694;SDS011;65580;49.446;6.854;2024-01-16T14:06:52;7.68;;;3.95;;
8694;SDS011;65580;49.446;6.854;2024-01-16T14:11:30;10.63;;;4.10;;
8694;SDS011;65580;49.446;6.854;2024-01-16T14:15:38;11.05;;;4.13;;
8694;SDS011;65580;49.446;6.854;2024-01-16T14:19:44;14.93;;;4.38;;
8694;SDS011;65580;49.446;6.854;2024-01-16T14:23:47;10.68;;;4.45;;
8694;SDS011;65580;49.446;6.854;2024-01-16T14:27:57;13.38;;;4.35;;
8694;SDS011;65580;49.446;6.854;2024-01-16T14:32:06;11.43;;;4.50;;
8694;SDS011;65580;49.446;6.854;2024-01-16T14:36:16;10.48;;;4.15;;
8694;SDS011;65580;49.446;6.854;2024-01-16T14:40:21;7.72;;;4.10;;
8694;SDS011;65580;49.446;6.854;2024-01-16T14:44:41;9.23;;;3.75;;
8694;SDS011;65580;49.446;6.854;2024-01-16T14:48:44;13.98;;;5.70;;
8694;SDS011;65580;49.446;6.854;2024-01-16T14:52:48;14.45;;;5.18;;
8694;SDS011;65580;49.446;6.854;2024-01-16T14:56:54;13.63;;;5.00;;
8694;SDS011;65580;49.446;6.854;2024-01-16T15:00:59;15.70;;;5.45;;
8694;SDS011;65580;49.446;6.854;2024-01-16T15:17:41;12.50;;;4.65;;
8694;SDS011;65580;49.446;6.854;2024-01-16T15:21:46;16.75;;;4.65;;
8694;SDS011;65580;49.446;6.854;2024-01-16T15:25:49;11.50;;;4.50;;
8694;SDS011;65580;49.446;6.854;2024-01-16T15:29:55;10.02;;;4.88;;
8694;SDS011;65580;49.446;6.854;2024-01-16T15:34:07;9.43;;;4.40;;
8694;SDS011;65580;49.446;6.854;2024-01-16T15:38:15;11.43;;;4.43;;
8694;SDS011;65580;49.446;6.854;2024-01-16T15:42:23;10.38;;;4.72;;
8694;SDS011;65580;49.446;6.854;2024-01-16T15:51:00;10.88;;;4.40;;
8694;SDS011;65580;49.446;6.854;2024-01-16T15:55:12;9.80;;;4.15;;
8694;SDS011;65580;49.446;6.854;2024-01-16T15:59:21;11.25;;;5.10;;
8694;SDS011;65580;49.446;6.854;2024-01-16T16:03:25;10.60;;;4.38;;
8694;SDS011;65580;49.446;6.854;2024-01-16T16:07:30;11.38;;;4.97;;
8694;SDS011;65580;49.446;6.854;2024-01-16T16:11:36;12.05;;;5.35;;
8694;SDS011;65580;49.446;6.854;2024-01-16T16:15:57;16.15;;;6.15;;
8694;SDS011;65580;49.446;6.854;2024-01-16T16:28:48;17.38;;;7.47;;
8694;SDS011;65580;49.446;6.854;2024-01-16T16:37:08;16.67;;;7.35;;
8694;SDS011;65580;49.446;6.854;2024-01-16T16:41:16;19.42;;;7.53;;
8694;SDS011;65580;49.446;6.854;2024-01-16T16:45:23;17.17;;;6.57;;
8694;SDS011;65580;49.446;6.854;2024-01-16T16:49:33;16.38;;;6.90;;
8694;SDS011;65580;49.446;6.854;2024-01-16T16:53:44;15.57;;;6.82;;
8694;SDS011;65580;49.446;6.854;2024-01-16T16:57:54;20.52;;;7.53;;
8694;SDS011;65580;49.446;6.854;2024-01-16T17:02:06;16.20;;;6.53;;
8694;SDS011;65580;49.446;6.854;2024-01-16T17:06:09;16.85;;;6.93;;
8694;SDS011;65580;49.446;6.854;2024-01-16T17:10:12;17.95;;;7.10;;
8694;SDS011;65580;49.446;6.854;2024-01-16T17:14:16;18.17;;;7.72;;
8694;SDS011;65580;49.446;6.854;2024-01-16T17:18:35;19.83;;;7.57;;
8694;SDS011;65580;49.446;6.854;2024-01-16T17:22:50;21.45;;;8.43;;
8694;SDS011;65580;49.446;6.854;2024-01-16T17:26:53;21.70;;;8.60;;
8694;SDS011;65580;49.446;6.854;2024-01-16T17:31:04;20.17;;;7.82;;
8694;SDS011;65580;49.446;6.854;2024-01-16T17:35:14;20.25;;;8.43;;
8694;SDS011;65580;49.446;6.854;2024-01-16T17:43:33;16.52;;;6.38;;
8694;SDS011;65580;49.446;6.854;2024-01-16T17:47:45;19.48;;;7.65;;
8694;SDS011;65580;49.446;6.854;2024-01-16T17:51:57;24.52;;;9.27;;
8694;SDS011;65580;49.446;6.854;2024-01-16T17:56:00;23.52;;;8.68;;
8694;SDS011;65580;49.446;6.854;2024-01-16T18:00:05;23.95;;;9.07;;
8694;SDS011;65580;49.446;6.854;2024-01-16T18:04:11;25.65;;;9.80;;
8694;SDS011;65580;49.446;6.854;2024-01-16T18:08:15;22.10;;;9.05;;
8694;SDS011;65580;49.446;6.854;2024-01-16T18:12:18;27.05;;;10.15;;
8694;SDS011;65580;49.446;6.854;2024-01-16T18:16:22;27.92;;;10.05;;
8694;SDS011;65580;49.446;6.854;2024-01-16T18:20:29;26.42;;;10.48;;
8694;SDS011;65580;49.446;6.854;2024-01-16T18:24:35;23.75;;;8.63;;
8694;SDS011;65580;49.446;6.854;2024-01-16T18:28:38;35.67;;;11.55;;
8694;SDS011;65580;49.446;6.854;2024-01-16T18:32:42;26.33;;;9.48;;
8694;SDS011;65580;49.446;6.854;2024-01-16T18:36:47;24.77;;;9.75;;
8694;SDS011;65580;49.446;6.854;2024-01-16T18:40:50;25.25;;;10.20;;
8694;SDS011;65580;49.446;6.854;2024-01-16T18:44:53;28.13;;;11.43;;
8694;SDS011;65580;49.446;6.854;2024-01-16T18:48:56;24.20;;;9.73;;
8694;SDS011;65580;49.446;6.854;2024-01-16T18:53:01;24.20;;;10.15;;
8694;SDS011;65580;49.446;6.854;2024-01-16T18:57:05;24.40;;;9.93;;
8694;SDS011;65580;49.446;6.854;2024-01-16T19:01:08;25.05;;;9.77;;
8694;SDS011;65580;49.446;6.854;2024-01-16T19:05:13;27.83;;;11.30;;
8694;SDS011;65580;49.446;6.854;2024-01-16T19:09:25;26.98;;;11.13;;
8694;SDS011;65580;49.446;6.854;2024-01-16T19:13:37;24.95;;;9.88;;
8694;SDS011;65580;49.446;6.854;2024-01-16T19:17:40;30.45;;;10.27;;
8694;SDS011;65580;49.446;6.854;2024-01-16T19:21:43;24.77;;;11.15;;
8694;SDS011;65580;49.446;6.854;2024-01-16T19:25:49;30.45;;;10.57;;
8694;SDS011;65580;49.446;6.854;2024-01-16T19:29:52;24.98;;;10.30;;
8694;SDS011;65580;49.446;6.854;2024-01-16T19:33:55;25.02;;;9.68;;
8694;SDS011;65580;49.446;6.854;2024-01-16T19:37:59;27.67;;;10.70;;
8694;SDS011;65580;49.446;6.854;2024-01-16T19:42:03;31.58;;;10.75;;
8694;SDS011;65580;49.446;6.854;2024-01-16T19:46:06;26.88;;;11.30;;
8694;SDS011;65580;49.446;6.854;2024-01-16T19:50:10;27.88;;;9.95;;
8694;SDS011;65580;49.446;6.854;2024-01-16T19:54:23;30.23;;;10.15;;
8694;SDS011;65580;49.446;6.854;2024-01-16T19:58:28;31.20;;;11.82;;
8694;SDS011;65580;49.446;6.854;2024-01-16T20:06:42;27.92;;;10.95;;
8694;SDS011;65580;49.446;6.854;2024-01-16T20:10:46;26.52;;;11.13;;
8694;SDS011;65580;49.446;6.854;2024-01-16T20:14:51;31.90;;;12.43;;
8694;SDS011;65580;49.446;6.854;2024-01-16T20:18:54;30.05;;;11.27;;
8694;SDS011;65580;49.446;6.854;2024-01-16T20:22:57;28.13;;;11.13;;
8694;SDS011;65580;49.446;6.854;2024-01-16T20:27:00;33.72;;;12.88;;
8694;SDS011;65580;49.446;6.854;2024-01-16T20:31:05;33.10;;;12.80;;
8694;SDS011;65580;49.446;6.854;2024-01-16T20:35:09;37.28;;;11.80;;
8694;SDS011;65580;49.446;6.854;2024-01-16T20:39:16;29.10;;;11.73;;
8694;SDS011;65580;49.446;6.854;2024-01-16T20:43:19;33.00;;;11.85;;
8694;SDS011;65580;49.446;6.854;2024-01-16T20:47:23;31.13;;;11.60;;
8694;SDS011;65580;49.446;6.854;2024-01-16T20:51:26;32.33;;;11.73;;
8694;SDS011;65580;49.446;6.854;2024-01-16T20:55:30;30.88;;;11.27;;
8694;SDS011;65580;49.446;6.854;2024-01-16T20:59:34;30.70;;;10.82;;
8694;SDS011;65580;49.446;6.854;2024-01-16T21:03:38;32.38;;;11.18;;
8694;SDS011;65580;49.446;6.854;2024-01-16T21:07:41;34.92;;;11.10;;
8694;SDS011;65580;49.446;6.854;2024-01-16T21:11:44;30.80;;;12.40;;
8694;SDS011;65580;49.446;6.854;2024-01-16T21:15:48;32.30;;;12.07;;
8694;SDS011;65580;49.446;6.854;2024-01-16T21:19:52;25.02;;;10.55;;
8694;SDS011;65580;49.446;6.854;2024-01-16T21:23:55;35.05;;;11.68;;
8694;SDS011;65580;49.446;6.854;2024-01-16T21:27:57;27.10;;;10.18;;
8694;SDS011;65580;49.446;6.854;2024-01-16T21:32:01;25.33;;;10.00;;
8694;SDS011;65580;49.446;6.854;2024-01-16T21:36:07;28.65;;;10.88;;
8694;SDS011;65580;49.446;6.854;2024-01-16T21:40:12;30.38;;;10.07;;
8694;SDS011;65580;49.446;6.854;2024-01-16T21:44:15;30.02;;;11.90;;
8694;SDS011;65580;49.446;6.854;2024-01-16T21:48:23;26.70;;;10.45;;
8694;SDS011;65580;49.446;6.854;2024-01-16T21:52:31;30.95;;;11.70;;
8694;SDS011;65580;49.446;6.854;2024-01-16T21:56:34;29.38;;;11.63;;
8694;SDS011;65580;49.446;6.854;2024-01-16T22:00:37;29.13;;;11.18;;
8694;SDS011;65580;49.446;6.854;2024-01-16T22:04:40;28.58;;;11.02;;
8694;SDS011;65580;49.446;6.854;2024-01-16T22:08:52;31.02;;;11.32;;
8694;SDS011;65580;49.446;6.854;2024-01-16T22:12:57;28.77;;;11.05;;
8694;SDS011;65580;49.446;6.854;2024-01-16T22:17:00;25.90;;;9.90;;
8694;SDS011;65580;49.446;6.854;2024-01-16T22:21:03;31.52;;;10.95;;
8694;SDS011;65580;49.446;6.854;2024-01-16T22:25:09;27.20;;;11.48;;
8694;SDS011;65580;49.446;6.854;2024-01-16T22:29:12;32.53;;;11.60;;
8694;SDS011;65580;49.446;6.854;2024-01-16T22:33:15;29.20;;;11.73;;
8694;SDS011;65580;49.446;6.854;2024-01-16T22:37:18;29.73;;;11.90;;
8694;SDS011;65580;49.446;6.854;2024-01-16T22:41:22;34.22;;;12.40;;
8694;SDS011;65580;49.446;6.854;2024-01-16T22:45:25;36.88;;;12.00;;
8694;SDS011;65580;49.446;6.854;2024-01-16T22:49:28;38.58;;;13.45;;
8694;SDS011;65580;49.446;6.854;2024-01-16T22:53:31;26.35;;;11.13;;
8694;SDS011;65580;49.446;6.854;2024-01-16T22:57:35;27.35;;;11.55;;
8694;SDS011;65580;49.446;6.854;2024-01-16T23:01:45;22.80;;;9.57;;
8694;SDS011;65580;49.446;6.854;2024-01-16T23:05:48;30.58;;;10.88;;
8694;SDS011;65580;49.446;6.854;2024-01-16T23:09:53;31.50;;;10.98;;
8694;SDS011;65580;49.446;6.854;2024-01-16T23:13:58;28.27;;;10.23;;
8694;SDS011;65580;49.446;6.854;2024-01-16T23:22:07;28.45;;;10.52;;
8694;SDS011;65580;49.446;6.854;2024-01-16T23:26:10;28.98;;;10.75;;
8694;SDS011;65580;49.446;6.854;2024-01-16T23:30:14;26.02;;;9.60;;
8694;SDS011;65580;49.446;6.854;2024-01-16T23:34:17;25.88;;;10.85;;
8694;SDS011;65580;49.446;6.854;2024-01-16T23:38:20;24.20;;;10.23;;
8694;SDS011;65580;49.446;6.854;2024-01-16T23:42:23;25.42;;;9.80;;
8694;SDS011;65580;49.446;6.854;2024-01-16T23:46:28;27.23;;;10.13;;
8694;SDS011;65580;49.446;6.854;2024-01-16T23:50:32;28.85;;;9.77;;
8694;SDS011;65580;49.446;6.854;2024-01-16T23:54:35;22.90;;;9.77;;
8694;SDS011;65580;49.446;6.854;2024-01-16T23:58:38;28.48;;;9.98;;
